Terminal Aerodrome Forecast
Issued by NWS

Home | Current Version | Previous Version | Text Only | Print | Product List | Glossary On
Versions: 1 2 3 4 5 6 7 8 9 10 11 12 13
000
FTUS46 KPDT 310200 AAA
TAFYKM
TAF AMD
KYKM 310202Z 3102/3124 28014G23KT P6SM SCT060 BKN090
     FM310400 29007KT P6SM SCT070
     FM311000 26005KT P6SM SKC
     FM311600 VRB04KT P6SM SKC
     FM312200 33010KT P6SM SKC=

USA.gov is the U.S. government's official web portal to all federal, state and local government web resources and services.